createdAt,value
2022-10-01T00:02:04.080Z,8.63
2022-10-01T00:04:31.613Z,8.20
2022-10-01T00:07:03.862Z,8.55
2022-10-01T00:09:32.611Z,7.97
2022-10-01T00:11:59.955Z,7.53
2022-10-01T00:14:28.085Z,8.52
2022-10-01T00:16:55.574Z,8.18
2022-10-01T00:19:23.061Z,7.80
2022-10-01T00:21:50.469Z,7.38
2022-10-01T00:24:17.722Z,6.75
2022-10-01T00:26:45.746Z,6.85
2022-10-01T00:29:14.951Z,7.53
2022-10-01T00:31:42.990Z,7.30
2022-10-01T00:34:13.248Z,7.82
2022-10-01T00:36:41.172Z,8.18
2022-10-01T00:39:10.370Z,7.70
2022-10-01T00:41:38.250Z,6.65
2022-10-01T00:44:29.920Z,7.18
2022-10-01T00:47:04.087Z,6.47
2022-10-01T00:49:35.482Z,9.85
2022-10-01T00:52:08.342Z,8.45
2022-10-01T00:54:45.722Z,9.60
2022-10-01T00:57:17.028Z,10.18
2022-10-01T00:59:45.945Z,8.23
2022-10-01T01:02:13.342Z,7.15
2022-10-01T01:04:41.642Z,7.10
2022-10-01T01:07:09.933Z,7.43
2022-10-01T01:09:49.107Z,7.40
2022-10-01T01:12:40.336Z,7.93
2022-10-01T01:15:19.503Z,7.32
2022-10-01T01:17:55.769Z,7.38
2022-10-01T01:20:34.485Z,8.10
2022-10-01T01:23:14.615Z,7.95
2022-10-01T01:25:57.309Z,7.85
2022-10-01T01:28:36.289Z,7.28
2022-10-01T01:31:14.602Z,7.70
2022-10-01T01:33:46.053Z,7.18
2022-10-01T01:36:20.382Z,7.45
2022-10-01T01:38:55.043Z,6.57
2022-10-01T01:41:26.887Z,6.28
2022-10-01T01:43:57.629Z,5.78
2022-10-01T01:46:31.819Z,6.97
2022-10-01T01:49:02.686Z,6.40
2022-10-01T01:51:47.570Z,7.82
2022-10-01T01:54:15.034Z,6.40
2022-10-01T01:56:42.521Z,6.65
2022-10-01T01:59:10.033Z,6.13
2022-10-01T02:01:40.265Z,6.28
2022-10-01T02:04:26.143Z,5.43
2022-10-01T02:07:17.874Z,6.93
2022-10-01T02:10:04.290Z,8.60
2022-10-01T02:12:46.967Z,6.78
2022-10-01T02:15:39.793Z,7.13
2022-10-01T02:18:17.253Z,6.07
2022-10-01T02:20:52.491Z,6.50
2022-10-01T02:23:25.829Z,6.32
2022-10-01T02:25:58.091Z,7.55
2022-10-01T02:28:26.122Z,7.80
2022-10-01T02:30:58.291Z,7.93
2022-10-01T02:33:30.360Z,9.43
2022-10-01T02:35:59.845Z,8.20
2022-10-01T02:38:29.936Z,8.30
2022-10-01T02:41:03.168Z,8.77
2022-10-01T02:43:42.734Z,9.05
2022-10-01T02:46:37.013Z,9.07
2022-10-01T02:49:05.429Z,7.20
2022-10-01T02:51:48.982Z,6.90
2022-10-01T02:54:47.360Z,7.22
2022-10-01T02:57:23.151Z,6.65
2022-10-01T02:59:59.970Z,6.38
2022-10-01T03:02:31.930Z,6.57
2022-10-01T03:05:00.239Z,7.03
2022-10-01T03:07:30.120Z,5.85
2022-10-01T03:09:57.637Z,7.93
2022-10-01T03:12:25.290Z,7.47
2022-10-01T03:14:53.381Z,6.85
2022-10-01T03:17:20.876Z,7.28
2022-10-01T03:19:48.434Z,7.43
2022-10-01T03:22:18.575Z,7.47
2022-10-01T03:24:45.837Z,7.18
2022-10-01T03:27:13.065Z,7.55
2022-10-01T03:29:40.304Z,7.20
2022-10-01T03:32:07.613Z,7.80
2022-10-01T03:34:34.947Z,8.05
2022-10-01T03:37:02.461Z,7.25
2022-10-01T03:39:30.329Z,6.90
2022-10-01T03:41:58.339Z,6.97
2022-10-01T03:44:25.715Z,7.65
2022-10-01T03:46:53.065Z,7.32
2022-10-01T03:49:20.522Z,7.53
2022-10-01T03:51:47.873Z,6.75
2022-10-01T03:54:15.343Z,6.80
2022-10-01T03:56:42.843Z,7.30
2022-10-01T03:59:13.342Z,7.93
2022-10-01T04:04:08.058Z,6.95
2022-10-01T04:06:35.386Z,7.82
2022-10-01T04:09:02.766Z,8.30
2022-10-01T04:11:30.503Z,8.15
2022-10-01T04:13:58.495Z,8.43
2022-10-01T04:16:25.865Z,8.43
2022-10-01T04:18:53.651Z,7.60
2022-10-01T04:21:21.255Z,7.35
2022-10-01T04:23:50.026Z,7.57
2022-10-01T04:26:18.823Z,7.57
2022-10-01T04:28:46.994Z,7.88
2022-10-01T04:31:28.183Z,7.95
2022-10-01T04:33:58.166Z,7.63
2022-10-01T04:36:26.496Z,7.43
2022-10-01T04:39:00.871Z,6.72
2022-10-01T04:41:31.138Z,7.43
2022-10-01T04:44:00.309Z,6.88
2022-10-01T04:46:30.416Z,7.00
2022-10-01T04:48:58.480Z,6.60
2022-10-01T04:51:25.820Z,7.28
2022-10-01T04:53:53.599Z,6.55
2022-10-01T04:56:20.791Z,6.22
2022-10-01T04:58:49.330Z,7.07
2022-10-01T05:01:16.566Z,6.93
2022-10-01T05:03:43.870Z,6.18
2022-10-01T05:06:11.178Z,6.00
2022-10-01T05:08:39.294Z,6.07
2022-10-01T05:11:06.610Z,5.88
2022-10-01T05:13:33.921Z,6.18
2022-10-01T05:16:03.176Z,6.55
2022-10-01T05:18:30.627Z,5.50
2022-10-01T05:20:58.305Z,5.82
2022-10-01T05:23:25.868Z,5.90
2022-10-01T05:25:53.412Z,5.40
2022-10-01T05:28:22.593Z,5.53
2022-10-01T05:30:53.433Z,5.80
2022-10-01T05:33:21.288Z,7.03
2022-10-01T05:35:48.467Z,5.28
2022-10-01T05:38:15.820Z,5.82
2022-10-01T05:40:46.388Z,5.65
2022-10-01T05:45:46.999Z,5.07
2022-10-01T05:48:14.449Z,5.43
2022-10-01T05:50:42.650Z,5.75
2022-10-01T05:53:11.913Z,5.68
2022-10-01T05:55:39.325Z,7.70
2022-10-01T05:58:10.645Z,6.25
2022-10-01T06:00:44.165Z,6.18
2022-10-01T06:03:13.262Z,6.07
2022-10-01T06:05:41.114Z,6.30
2022-10-01T06:08:11.755Z,6.07
2022-10-01T06:13:06.924Z,5.55
2022-10-01T06:15:39.887Z,6.65
2022-10-01T06:18:10.625Z,5.57
2022-10-01T06:20:38.971Z,5.57
2022-10-01T06:23:10.202Z,5.30
2022-10-01T06:25:38.568Z,6.60
2022-10-01T06:28:08.244Z,6.22
2022-10-01T06:30:40.259Z,6.50
2022-10-01T06:33:11.536Z,7.65
2022-10-01T06:35:47.484Z,6.30
2022-10-01T06:38:16.324Z,7.38
2022-10-01T06:40:43.649Z,7.97
2022-10-01T06:43:11.037Z,7.68
2022-10-01T06:45:45.285Z,7.18
2022-10-01T06:48:15.247Z,7.35
2022-10-01T06:50:46.998Z,6.63
2022-10-01T06:53:16.138Z,5.63
2022-10-01T06:55:44.669Z,7.35
2022-10-01T06:58:17.882Z,6.95
2022-10-01T07:00:48.998Z,7.00
2022-10-01T07:03:21.416Z,6.43
2022-10-01T07:05:50.121Z,7.50
2022-10-01T07:08:18.030Z,7.57
2022-10-01T07:10:45.822Z,7.82
2022-10-01T07:13:17.764Z,7.68
2022-10-01T07:15:49.524Z,6.68
2022-10-01T07:18:17.416Z,6.95
2022-10-01T07:20:44.714Z,7.25
2022-10-01T07:23:14.109Z,7.15
2022-10-01T07:25:42.390Z,7.13
2022-10-01T07:28:16.953Z,6.57
2022-10-01T07:31:00.362Z,6.28
2022-10-01T07:33:28.706Z,7.68
2022-10-01T07:35:56.159Z,7.35
2022-10-01T07:38:23.469Z,6.07
2022-10-01T07:40:52.141Z,6.88
2022-10-01T07:43:19.432Z,7.47
2022-10-01T07:45:50.792Z,6.60
2022-10-01T07:48:19.449Z,8.35
2022-10-01T07:50:46.771Z,6.53
2022-10-01T07:53:14.237Z,6.60
2022-10-01T07:55:41.610Z,5.80
2022-10-01T07:58:09.907Z,5.28
2022-10-01T08:00:38.226Z,5.55
2022-10-01T08:03:06.508Z,5.90
2022-10-01T08:05:36.016Z,5.47
2022-10-01T08:08:07.379Z,5.53
2022-10-01T08:10:36.956Z,5.40
2022-10-01T08:13:15.182Z,5.35
2022-10-01T08:15:49.784Z,6.80
2022-10-01T08:18:17.790Z,5.80
2022-10-01T08:20:45.167Z,5.70
2022-10-01T08:23:14.941Z,6.75
2022-10-01T08:25:43.666Z,6.15
2022-10-01T08:28:12.081Z,5.35
2022-10-01T08:30:45.933Z,5.15
2022-10-01T08:33:14.897Z,5.13
2022-10-01T08:35:43.828Z,5.43
2022-10-01T08:38:12.416Z,4.72
2022-10-01T08:40:47.463Z,5.05
2022-10-01T08:43:26.316Z,5.65
2022-10-01T08:45:59.720Z,5.85
2022-10-01T08:49:01.066Z,7.03
2022-10-01T08:51:33.101Z,6.35
2022-10-01T08:54:29.448Z,6.43
2022-10-01T08:57:01.056Z,6.20
2022-10-01T08:59:43.938Z,6.55
2022-10-01T09:02:25.853Z,6.18
2022-10-01T09:05:08.384Z,6.03
2022-10-01T09:07:45.594Z,3.92
2022-10-01T09:10:40.504Z,3.80
2022-10-01T09:13:18.807Z,3.03
2022-10-01T09:15:57.124Z,2.15
2022-10-01T09:18:26.034Z,1.80
2022-10-01T09:20:58.746Z,1.88
2022-10-01T09:23:45.442Z,1.40
2022-10-01T09:26:13.449Z,2.20
2022-10-01T09:28:41.773Z,1.55
2022-10-01T09:31:38.574Z,2.08
2022-10-01T09:34:15.796Z,1.70
2022-10-01T09:37:14.871Z,1.65
2022-10-01T09:40:12.990Z,1.33
2022-10-01T09:42:40.595Z,1.60
2022-10-01T09:45:14.252Z,1.70
2022-10-01T09:47:44.412Z,1.33
2022-10-01T09:50:17.064Z,1.30
2022-10-01T09:52:48.864Z,1.70
2022-10-01T09:55:18.887Z,1.65
2022-10-01T09:58:09.402Z,1.25
2022-10-01T10:00:40.950Z,1.35
2022-10-01T10:03:09.922Z,1.42
2022-10-01T10:05:43.795Z,1.48
2022-10-01T10:08:23.748Z,1.60
2022-10-01T10:11:01.936Z,1.63
2022-10-01T10:13:35.417Z,1.55
2022-10-01T10:16:15.783Z,1.30
2022-10-01T10:18:46.749Z,1.30
2022-10-01T10:21:22.830Z,1.23
2022-10-01T10:24:04.593Z,1.67
2022-10-01T10:26:39.024Z,1.20
2022-10-01T10:29:09.454Z,1.33
2022-10-01T10:31:46.563Z,1.50
2022-10-01T10:34:18.627Z,1.20
2022-10-01T10:36:46.948Z,1.42
2022-10-01T10:39:21.799Z,1.33
2022-10-01T10:41:51.910Z,1.20
2022-10-01T10:44:21.533Z,2.38
2022-10-01T10:46:51.682Z,0.90
2022-10-01T10:49:32.483Z,1.05
2022-10-01T10:52:01.691Z,1.13
2022-10-01T10:54:40.772Z,1.20
2022-10-01T10:57:28.907Z,1.13
2022-10-01T11:00:00.279Z,1.27
2022-10-01T11:02:30.666Z,1.10
2022-10-01T11:07:27.950Z,1.08
2022-10-01T11:10:06.148Z,1.20
2022-10-01T11:12:49.882Z,1.30
2022-10-01T11:15:47.663Z,1.05
2022-10-01T11:18:22.898Z,1.08
2022-10-01T11:21:00.859Z,1.10
2022-10-01T11:23:53.066Z,1.15
2022-10-01T11:26:34.624Z,1.05
2022-10-01T11:29:26.436Z,1.10
2022-10-01T11:32:03.015Z,1.15
2022-10-01T11:34:57.162Z,1.10
2022-10-01T11:37:36.171Z,1.20
2022-10-01T11:40:17.997Z,0.90
2022-10-01T11:43:11.932Z,1.10
2022-10-01T11:45:49.878Z,1.00
2022-10-01T11:48:53.528Z,1.25
2022-10-01T11:51:27.205Z,0.98
2022-10-01T11:54:00.735Z,1.02
2022-10-01T11:56:52.101Z,1.60
2022-10-01T11:59:37.722Z,2.35
2022-10-01T12:02:30.949Z,1.70
2022-10-01T12:05:21.191Z,1.30
2022-10-01T12:07:51.278Z,1.58
2022-10-01T12:10:38.994Z,1.60
2022-10-01T12:13:32.944Z,1.30
2022-10-01T12:16:24.845Z,1.60
2022-10-01T12:22:15.784Z,1.30
2022-10-01T12:24:45.807Z,1.48
2022-10-01T12:27:28.155Z,1.40
2022-10-01T12:30:16.995Z,1.55
2022-10-01T12:32:50.437Z,1.30
2022-10-01T12:35:36.605Z,1.83
2022-10-01T12:38:08.672Z,1.42
2022-10-01T12:41:13.099Z,1.52
2022-10-01T12:43:57.613Z,1.52
2022-10-01T12:46:46.540Z,1.30
2022-10-01T12:49:39.510Z,1.65
2022-10-01T12:52:33.734Z,1.50
2022-10-01T12:55:29.507Z,1.23
2022-10-01T12:58:08.882Z,1.20
2022-10-01T13:01:15.773Z,1.70
2022-10-01T13:04:17.450Z,1.35
2022-10-01T13:07:03.268Z,1.60
2022-10-01T13:09:48.924Z,1.83
2022-10-01T13:12:29.175Z,1.40
2022-10-01T13:14:57.180Z,1.45
2022-10-01T13:17:52.571Z,1.75
2022-10-01T13:20:41.294Z,1.98
2022-10-01T13:23:30.561Z,1.40
2022-10-01T13:26:13.326Z,1.50
2022-10-01T13:29:00.627Z,1.98
2022-10-01T13:31:39.593Z,1.38
2022-10-01T13:34:35.761Z,1.30
2022-10-01T13:37:36.468Z,1.10
2022-10-01T13:40:19.842Z,1.73
2022-10-01T13:42:48.758Z,1.20
2022-10-01T13:46:03.861Z,1.50
2022-10-01T13:49:11.917Z,1.02
2022-10-01T13:51:47.420Z,1.50
2022-10-01T13:54:29.070Z,1.50
2022-10-01T13:57:08.697Z,1.40
2022-10-01T13:59:37.927Z,1.27
2022-10-01T14:02:33.026Z,1.60
2022-10-01T14:05:31.064Z,1.25
2022-10-01T14:08:29.746Z,1.63
2022-10-01T14:11:55.691Z,1.45
2022-10-01T14:14:58.966Z,1.33
2022-10-01T14:17:32.365Z,1.42
2022-10-01T14:20:01.614Z,1.23
2022-10-01T14:22:53.103Z,1.67
2022-10-01T14:25:32.587Z,1.85
2022-10-01T14:28:02.777Z,1.80
2022-10-01T14:30:42.939Z,1.50
2022-10-01T14:33:27.854Z,1.40
2022-10-01T14:36:29.740Z,1.30
2022-10-01T14:39:20.675Z,1.92
2022-10-01T14:41:50.898Z,1.38
2022-10-01T14:44:29.739Z,1.55
2022-10-01T14:46:59.429Z,1.23
2022-10-01T14:49:30.947Z,1.00
2022-10-01T14:52:04.852Z,1.00
2022-10-01T14:54:51.566Z,1.65
2022-10-01T14:57:29.867Z,1.27
2022-10-01T14:59:59.612Z,1.60
2022-10-01T15:02:29.182Z,1.27
2022-10-01T15:04:57.660Z,1.57
2022-10-01T15:07:28.203Z,1.42
2022-10-01T15:10:07.701Z,1.33
2022-10-01T15:12:40.648Z,1.27
2022-10-01T15:15:24.873Z,1.33
2022-10-01T15:17:52.988Z,2.08
2022-10-01T15:20:20.327Z,1.88
2022-10-01T15:22:50.143Z,1.30
2022-10-01T15:25:24.037Z,1.48
2022-10-01T15:27:54.400Z,1.25
2022-10-01T15:30:22.384Z,1.92
2022-10-01T15:32:51.066Z,1.65
2022-10-01T15:35:21.545Z,1.50
2022-10-01T15:37:51.274Z,1.35
2022-10-01T15:40:29.616Z,1.33
2022-10-01T15:43:15.205Z,1.40
2022-10-01T15:45:47.852Z,1.20
2022-10-01T15:48:30.292Z,1.33
2022-10-01T15:51:01.658Z,1.25
2022-10-01T15:53:30.106Z,1.27
2022-10-01T15:55:59.897Z,1.20
2022-10-01T15:58:32.409Z,1.50
2022-10-01T16:01:11.529Z,1.35
2022-10-01T16:03:41.541Z,1.50
2022-10-01T16:06:19.822Z,1.55
2022-10-01T16:09:07.109Z,1.10
2022-10-01T16:11:51.216Z,1.60
2022-10-01T16:14:33.062Z,1.70
2022-10-01T16:17:18.639Z,1.45
2022-10-01T16:19:53.819Z,1.45
2022-10-01T16:22:24.119Z,1.45
2022-10-01T16:27:35.439Z,2.08
2022-10-01T16:30:27.246Z,1.92
2022-10-01T16:32:55.529Z,1.67
2022-10-01T16:35:28.197Z,1.45
2022-10-01T16:37:58.072Z,1.65
2022-10-01T16:40:28.520Z,1.38
2022-10-01T16:45:25.624Z,1.90
2022-10-01T16:47:54.065Z,1.27
2022-10-01T16:50:22.582Z,1.95
2022-10-01T16:52:56.883Z,1.55
2022-10-01T16:55:26.794Z,1.90
2022-10-01T16:57:55.054Z,1.80
2022-10-01T17:00:25.815Z,1.45
2022-10-01T17:02:54.395Z,2.03
2022-10-01T17:05:31.215Z,1.50
2022-10-01T17:08:01.047Z,1.95
2022-10-01T17:10:31.141Z,2.08
2022-10-01T17:12:59.702Z,1.73
2022-10-01T17:15:28.645Z,1.33
2022-10-01T17:17:57.916Z,1.98
2022-10-01T17:20:28.796Z,1.55
2022-10-01T17:22:57.441Z,1.55
2022-10-01T17:25:31.197Z,2.25
2022-10-01T17:27:59.783Z,1.60
2022-10-01T17:30:29.949Z,1.65
2022-10-01T17:33:00.049Z,1.80
2022-10-01T17:35:28.831Z,1.88
2022-10-01T17:37:56.270Z,1.52
2022-10-01T17:40:23.554Z,1.45
2022-10-01T17:42:51.640Z,1.52
2022-10-01T17:45:19.003Z,1.73
2022-10-01T17:47:48.540Z,1.77
2022-10-01T17:50:16.532Z,1.30
2022-10-01T17:52:47.134Z,1.45
2022-10-01T17:55:15.180Z,1.40
2022-10-01T17:57:42.456Z,1.40
2022-10-01T18:00:10.408Z,1.27
2022-10-01T18:02:42.865Z,1.55
2022-10-01T18:05:14.574Z,1.20
2022-10-01T18:07:42.653Z,1.67
2022-10-01T18:10:12.078Z,1.63
2022-10-01T18:12:40.036Z,1.65
2022-10-01T18:15:08.210Z,1.50
2022-10-01T18:17:43.199Z,1.50
2022-10-01T18:20:10.895Z,1.40
2022-10-01T18:22:38.952Z,1.38
2022-10-01T18:25:07.588Z,1.40
2022-10-01T18:27:35.701Z,1.55
2022-10-01T18:30:07.073Z,1.33
2022-10-01T18:32:42.588Z,1.48
2022-10-01T18:35:21.172Z,1.50
2022-10-01T18:37:56.063Z,1.67
2022-10-01T18:40:33.740Z,1.40
2022-10-01T18:43:07.570Z,1.33
2022-10-01T18:45:58.084Z,1.33
2022-10-01T18:48:55.325Z,1.50
2022-10-01T18:52:07.762Z,1.30
2022-10-01T18:54:54.857Z,1.30
2022-10-01T18:57:37.840Z,3.28
2022-10-01T19:00:23.613Z,1.48
2022-10-01T19:02:59.859Z,1.67
2022-10-01T19:05:58.676Z,1.50
2022-10-01T19:09:07.772Z,1.83
2022-10-01T19:11:48.240Z,2.03
2022-10-01T19:14:21.832Z,2.03
2022-10-01T19:17:13.268Z,1.30
2022-10-01T19:19:43.629Z,1.35
2022-10-01T19:22:15.054Z,1.73
2022-10-01T19:25:00.841Z,1.70
2022-10-01T19:27:55.624Z,1.80
2022-10-01T19:30:23.167Z,1.35
2022-10-01T19:33:01.439Z,1.90
2022-10-01T19:35:54.184Z,1.60
2022-10-01T19:38:33.376Z,1.88
2022-10-01T19:41:11.796Z,1.52
2022-10-01T19:44:00.283Z,1.40
2022-10-01T19:46:38.466Z,1.80
2022-10-01T19:49:13.389Z,2.33
2022-10-01T19:51:59.635Z,1.50
2022-10-01T19:54:38.059Z,2.17
2022-10-01T19:57:29.588Z,1.67
2022-10-01T20:00:14.712Z,1.75
2022-10-01T20:02:49.674Z,2.08
2022-10-01T20:05:25.229Z,1.70
2022-10-01T20:08:01.653Z,1.52
2022-10-01T20:10:43.949Z,1.73
2022-10-01T20:13:44.116Z,1.40
2022-10-01T20:16:27.419Z,1.58
2022-10-01T20:19:16.420Z,1.67
2022-10-01T20:22:01.612Z,1.52
2022-10-01T20:24:50.505Z,1.73
2022-10-01T20:27:49.600Z,1.50
2022-10-01T20:30:20.406Z,1.67
2022-10-01T20:33:25.455Z,1.80
2022-10-01T20:36:16.776Z,1.50
2022-10-01T20:39:04.000Z,1.45
2022-10-01T20:41:42.559Z,1.38
2022-10-01T20:44:15.055Z,1.25
2022-10-01T20:46:47.255Z,1.20
2022-10-01T20:49:23.529Z,1.60
2022-10-01T20:51:54.877Z,1.60
2022-10-01T20:54:31.714Z,1.67
2022-10-01T20:57:19.924Z,2.03
2022-10-01T20:59:53.923Z,1.90
2022-10-01T21:02:34.751Z,1.90
2022-10-01T21:05:17.851Z,1.65
2022-10-01T21:07:51.518Z,1.50
2022-10-01T21:10:26.436Z,1.83
2022-10-01T21:13:20.698Z,2.00
2022-10-01T21:16:09.234Z,1.88
2022-10-01T21:18:44.045Z,1.92
2022-10-01T21:21:20.858Z,1.90
2022-10-01T21:24:37.114Z,2.00
2022-10-01T21:27:35.819Z,1.80
2022-10-01T21:30:08.871Z,2.00
2022-10-01T21:32:52.046Z,1.70
2022-10-01T21:35:24.293Z,1.75
2022-10-01T21:38:05.712Z,1.60
2022-10-01T21:40:50.140Z,2.00
2022-10-01T21:43:37.590Z,2.10
2022-10-01T21:46:44.747Z,1.75
2022-10-01T21:49:43.834Z,1.83
2022-10-01T21:52:18.931Z,1.55
2022-10-01T21:55:19.774Z,2.22
2022-10-01T22:00:28.858Z,1.60
2022-10-01T22:03:28.960Z,1.42
2022-10-01T22:05:56.298Z,1.35
2022-10-01T22:08:36.917Z,1.70
2022-10-01T22:13:42.472Z,1.63
2022-10-01T22:16:14.648Z,1.52
2022-10-01T22:18:52.970Z,2.65
2022-10-01T22:21:47.177Z,1.75
2022-10-01T22:24:18.923Z,1.70
2022-10-01T22:26:57.930Z,2.00
2022-10-01T22:29:29.116Z,1.63
2022-10-01T22:32:03.232Z,1.60
2022-10-01T22:34:42.637Z,1.70
2022-10-01T22:37:21.284Z,1.70
2022-10-01T22:39:54.947Z,1.80
2022-10-01T22:42:37.288Z,2.03
2022-10-01T22:45:16.729Z,1.98
2022-10-01T22:47:58.144Z,1.70
2022-10-01T22:50:49.068Z,1.70
2022-10-01T22:53:41.350Z,1.80
2022-10-01T22:56:16.861Z,2.20
2022-10-01T22:59:14.141Z,1.50
2022-10-01T23:01:56.603Z,1.80
2022-10-01T23:04:51.577Z,1.73
2022-10-01T23:07:38.538Z,1.40
2022-10-01T23:10:27.711Z,1.58
2022-10-01T23:13:28.605Z,1.60
2022-10-01T23:16:06.200Z,1.40
2022-10-01T23:18:42.990Z,1.90
2022-10-01T23:21:27.803Z,1.33
2022-10-01T23:24:22.380Z,1.67
2022-10-01T23:27:14.631Z,1.45
2022-10-01T23:29:53.934Z,1.80
2022-10-01T23:32:39.713Z,1.60
2022-10-01T23:35:42.825Z,1.63
2022-10-01T23:38:25.097Z,1.73
2022-10-01T23:40:52.399Z,1.80
2022-10-01T23:43:31.352Z,1.95
2022-10-01T23:46:17.905Z,1.90
2022-10-01T23:48:51.192Z,1.52
2022-10-01T23:51:27.634Z,1.80
2022-10-01T23:54:19.494Z,1.80
2022-10-01T23:56:52.441Z,1.63
2022-10-01T23:59:41.564Z,1.92
